sensor_id;sensor_type;location;lat;lon;timestamp;P1;durP1;ratioP1;P2;durP2;ratioP2
20986;SDS011;10652;50.306;8.570;2024-01-15T00:02:38;10.88;;;6.47;;
20986;SDS011;10652;50.306;8.570;2024-01-15T00:06:40;10.88;;;6.15;;
20986;SDS011;10652;50.306;8.570;2024-01-15T00:10:42;13.43;;;7.00;;
20986;SDS011;10652;50.306;8.570;2024-01-15T00:14:45;10.68;;;6.47;;
20986;SDS011;10652;50.306;8.570;2024-01-15T00:18:47;8.57;;;5.65;;
20986;SDS011;10652;50.306;8.570;2024-01-15T00:22:49;11.23;;;5.93;;
20986;SDS011;10652;50.306;8.570;2024-01-15T00:26:51;9.10;;;6.15;;
20986;SDS011;10652;50.306;8.570;2024-01-15T00:30:53;9.73;;;6.05;;
20986;SDS011;10652;50.306;8.570;2024-01-15T00:34:56;10.65;;;6.40;;
20986;SDS011;10652;50.306;8.570;2024-01-15T00:38:59;10.68;;;6.13;;
20986;SDS011;10652;50.306;8.570;2024-01-15T00:43:01;10.82;;;6.05;;
20986;SDS011;10652;50.306;8.570;2024-01-15T00:47:04;9.98;;;5.80;;
20986;SDS011;10652;50.306;8.570;2024-01-15T00:51:06;9.52;;;6.20;;
20986;SDS011;10652;50.306;8.570;2024-01-15T00:55:09;11.27;;;6.97;;
20986;SDS011;10652;50.306;8.570;2024-01-15T00:59:11;10.05;;;6.18;;
20986;SDS011;10652;50.306;8.570;2024-01-15T01:03:16;9.70;;;6.60;;
20986;SDS011;10652;50.306;8.570;2024-01-15T01:07:19;11.07;;;6.38;;
20986;SDS011;10652;50.306;8.570;2024-01-15T01:11:21;10.82;;;6.47;;
20986;SDS011;10652;50.306;8.570;2024-01-15T01:15:23;10.90;;;6.75;;
20986;SDS011;10652;50.306;8.570;2024-01-15T01:19:26;12.05;;;7.30;;
20986;SDS011;10652;50.306;8.570;2024-01-15T01:23:28;10.10;;;6.53;;
20986;SDS011;10652;50.306;8.570;2024-01-15T01:27:31;15.40;;;7.40;;
20986;SDS011;10652;50.306;8.570;2024-01-15T01:31:33;12.50;;;7.00;;
20986;SDS011;10652;50.306;8.570;2024-01-15T01:35:35;13.32;;;7.28;;
20986;SDS011;10652;50.306;8.570;2024-01-15T01:39:38;11.90;;;7.13;;
20986;SDS011;10652;50.306;8.570;2024-01-15T01:43:40;12.77;;;7.57;;
20986;SDS011;10652;50.306;8.570;2024-01-15T01:47:42;13.98;;;7.65;;
20986;SDS011;10652;50.306;8.570;2024-01-15T01:51:45;13.98;;;7.47;;
20986;SDS011;10652;50.306;8.570;2024-01-15T01:55:49;13.43;;;7.55;;
20986;SDS011;10652;50.306;8.570;2024-01-15T01:59:52;13.13;;;6.97;;
20986;SDS011;10652;50.306;8.570;2024-01-15T02:03:56;12.23;;;6.90;;
20986;SDS011;10652;50.306;8.570;2024-01-15T02:07:59;12.48;;;6.50;;
20986;SDS011;10652;50.306;8.570;2024-01-15T02:12:01;12.73;;;7.03;;
20986;SDS011;10652;50.306;8.570;2024-01-15T02:16:04;13.85;;;7.03;;
20986;SDS011;10652;50.306;8.570;2024-01-15T02:20:06;12.35;;;6.78;;
20986;SDS011;10652;50.306;8.570;2024-01-15T02:24:09;13.75;;;7.28;;
20986;SDS011;10652;50.306;8.570;2024-01-15T02:28:12;13.18;;;6.95;;
20986;SDS011;10652;50.306;8.570;2024-01-15T02:32:15;11.40;;;7.13;;
20986;SDS011;10652;50.306;8.570;2024-01-15T02:36:17;12.63;;;7.00;;
20986;SDS011;10652;50.306;8.570;2024-01-15T02:40:19;11.48;;;6.57;;
20986;SDS011;10652;50.306;8.570;2024-01-15T02:44:21;14.10;;;6.97;;
20986;SDS011;10652;50.306;8.570;2024-01-15T02:48:24;12.27;;;7.00;;
20986;SDS011;10652;50.306;8.570;2024-01-15T02:52:26;10.70;;;6.47;;
20986;SDS011;10652;50.306;8.570;2024-01-15T02:56:28;12.50;;;6.60;;
20986;SDS011;10652;50.306;8.570;2024-01-15T03:00:30;12.15;;;6.80;;
20986;SDS011;10652;50.306;8.570;2024-01-15T03:04:33;12.88;;;6.95;;
20986;SDS011;10652;50.306;8.570;2024-01-15T03:08:35;10.82;;;6.43;;
20986;SDS011;10652;50.306;8.570;2024-01-15T03:12:37;10.10;;;6.20;;
20986;SDS011;10652;50.306;8.570;2024-01-15T03:16:39;12.77;;;7.20;;
20986;SDS011;10652;50.306;8.570;2024-01-15T03:20:41;12.00;;;6.63;;
20986;SDS011;10652;50.306;8.570;2024-01-15T03:24:44;11.35;;;6.55;;
20986;SDS011;10652;50.306;8.570;2024-01-15T03:28:46;12.98;;;6.68;;
20986;SDS011;10652;50.306;8.570;2024-01-15T03:32:48;12.23;;;7.05;;
20986;SDS011;10652;50.306;8.570;2024-01-15T03:36:52;10.45;;;6.25;;
20986;SDS011;10652;50.306;8.570;2024-01-15T03:40:54;11.05;;;6.25;;
20986;SDS011;10652;50.306;8.570;2024-01-15T03:44:56;12.52;;;7.00;;
20986;SDS011;10652;50.306;8.570;2024-01-15T03:48:58;12.00;;;6.78;;
20986;SDS011;10652;50.306;8.570;2024-01-15T03:53:01;11.40;;;6.78;;
20986;SDS011;10652;50.306;8.570;2024-01-15T03:57:03;14.02;;;6.57;;
20986;SDS011;10652;50.306;8.570;2024-01-15T04:01:09;10.85;;;5.85;;
20986;SDS011;10652;50.306;8.570;2024-01-15T04:05:12;12.32;;;6.45;;
20986;SDS011;10652;50.306;8.570;2024-01-15T04:09:14;10.73;;;6.30;;
20986;SDS011;10652;50.306;8.570;2024-01-15T04:13:16;12.35;;;7.07;;
20986;SDS011;10652;50.306;8.570;2024-01-15T04:17:19;11.65;;;6.50;;
20986;SDS011;10652;50.306;8.570;2024-01-15T04:21:21;14.32;;;6.93;;
20986;SDS011;10652;50.306;8.570;2024-01-15T04:25:23;13.32;;;7.15;;
20986;SDS011;10652;50.306;8.570;2024-01-15T04:29:25;12.52;;;6.38;;
20986;SDS011;10652;50.306;8.570;2024-01-15T04:33:27;13.25;;;7.20;;
20986;SDS011;10652;50.306;8.570;2024-01-15T04:37:29;13.60;;;7.28;;
20986;SDS011;10652;50.306;8.570;2024-01-15T04:41:31;12.88;;;7.30;;
20986;SDS011;10652;50.306;8.570;2024-01-15T04:45:33;16.33;;;7.60;;
20986;SDS011;10652;50.306;8.570;2024-01-15T04:49:35;15.43;;;7.57;;
20986;SDS011;10652;50.306;8.570;2024-01-15T04:53:37;13.45;;;7.22;;
20986;SDS011;10652;50.306;8.570;2024-01-15T04:57:40;15.82;;;7.80;;
20986;SDS011;10652;50.306;8.570;2024-01-15T05:01:42;15.00;;;7.78;;
20986;SDS011;10652;50.306;8.570;2024-01-15T05:05:44;14.02;;;7.60;;
20986;SDS011;10652;50.306;8.570;2024-01-15T05:09:46;13.65;;;7.47;;
20986;SDS011;10652;50.306;8.570;2024-01-15T05:13:48;14.27;;;7.80;;
20986;SDS011;10652;50.306;8.570;2024-01-15T05:17:50;11.88;;;6.97;;
20986;SDS011;10652;50.306;8.570;2024-01-15T05:21:53;12.48;;;7.15;;
20986;SDS011;10652;50.306;8.570;2024-01-15T05:25:55;15.32;;;7.18;;
20986;SDS011;10652;50.306;8.570;2024-01-15T05:29:57;13.07;;;7.70;;
20986;SDS011;10652;50.306;8.570;2024-01-15T05:33:59;13.75;;;7.25;;
20986;SDS011;10652;50.306;8.570;2024-01-15T05:38:01;14.85;;;7.75;;
20986;SDS011;10652;50.306;8.570;2024-01-15T05:42:04;15.20;;;7.10;;
20986;SDS011;10652;50.306;8.570;2024-01-15T05:46:06;15.55;;;7.63;;
20986;SDS011;10652;50.306;8.570;2024-01-15T05:50:09;12.85;;;7.45;;
20986;SDS011;10652;50.306;8.570;2024-01-15T05:54:11;16.10;;;8.18;;
20986;SDS011;10652;50.306;8.570;2024-01-15T05:58:13;14.85;;;7.60;;
20986;SDS011;10652;50.306;8.570;2024-01-15T06:02:16;12.20;;;7.05;;
20986;SDS011;10652;50.306;8.570;2024-01-15T06:06:18;13.52;;;7.40;;
20986;SDS011;10652;50.306;8.570;2024-01-15T06:10:20;11.55;;;7.38;;
20986;SDS011;10652;50.306;8.570;2024-01-15T06:14:22;17.80;;;9.80;;
20986;SDS011;10652;50.306;8.570;2024-01-15T06:18:24;15.25;;;8.25;;
20986;SDS011;10652;50.306;8.570;2024-01-15T06:22:26;14.05;;;7.72;;
20986;SDS011;10652;50.306;8.570;2024-01-15T06:26:28;15.48;;;8.48;;
20986;SDS011;10652;50.306;8.570;2024-01-15T06:30:30;16.40;;;7.97;;
20986;SDS011;10652;50.306;8.570;2024-01-15T06:34:33;14.90;;;7.90;;
20986;SDS011;10652;50.306;8.570;2024-01-15T06:38:35;14.38;;;8.27;;
20986;SDS011;10652;50.306;8.570;2024-01-15T06:42:38;13.05;;;7.60;;
20986;SDS011;10652;50.306;8.570;2024-01-15T06:46:43;13.65;;;7.72;;
20986;SDS011;10652;50.306;8.570;2024-01-15T06:50:45;15.40;;;7.70;;
20986;SDS011;10652;50.306;8.570;2024-01-15T06:54:47;11.82;;;7.25;;
20986;SDS011;10652;50.306;8.570;2024-01-15T06:58:50;13.27;;;6.47;;
20986;SDS011;10652;50.306;8.570;2024-01-15T07:02:52;9.95;;;5.85;;
20986;SDS011;10652;50.306;8.570;2024-01-15T07:06:54;9.68;;;5.95;;
20986;SDS011;10652;50.306;8.570;2024-01-15T07:10:56;10.90;;;5.82;;
20986;SDS011;10652;50.306;8.570;2024-01-15T07:14:58;12.82;;;6.72;;
20986;SDS011;10652;50.306;8.570;2024-01-15T07:19:00;9.70;;;5.95;;
20986;SDS011;10652;50.306;8.570;2024-01-15T07:23:03;11.93;;;7.05;;
20986;SDS011;10652;50.306;8.570;2024-01-15T07:27:06;13.75;;;7.28;;
20986;SDS011;10652;50.306;8.570;2024-01-15T07:31:08;13.65;;;7.63;;
20986;SDS011;10652;50.306;8.570;2024-01-15T07:35:10;13.38;;;7.70;;
20986;SDS011;10652;50.306;8.570;2024-01-15T07:39:13;14.32;;;8.02;;
20986;SDS011;10652;50.306;8.570;2024-01-15T07:43:15;14.63;;;8.18;;
20986;SDS011;10652;50.306;8.570;2024-01-15T07:47:17;11.73;;;7.15;;
20986;SDS011;10652;50.306;8.570;2024-01-15T07:51:20;14.27;;;7.03;;
20986;SDS011;10652;50.306;8.570;2024-01-15T07:55:22;11.48;;;6.50;;
20986;SDS011;10652;50.306;8.570;2024-01-15T07:59:24;14.13;;;7.60;;
20986;SDS011;10652;50.306;8.570;2024-01-15T08:03:26;11.35;;;6.03;;
20986;SDS011;10652;50.306;8.570;2024-01-15T08:07:29;11.00;;;6.60;;
20986;SDS011;10652;50.306;8.570;2024-01-15T08:11:31;11.85;;;6.88;;
20986;SDS011;10652;50.306;8.570;2024-01-15T08:15:33;13.25;;;7.28;;
20986;SDS011;10652;50.306;8.570;2024-01-15T08:19:35;13.13;;;7.50;;
20986;SDS011;10652;50.306;8.570;2024-01-15T08:23:37;14.68;;;7.93;;
20986;SDS011;10652;50.306;8.570;2024-01-15T08:27:40;12.98;;;8.15;;
20986;SDS011;10652;50.306;8.570;2024-01-15T08:31:42;12.38;;;7.50;;
20986;SDS011;10652;50.306;8.570;2024-01-15T08:35:44;12.63;;;6.70;;
20986;SDS011;10652;50.306;8.570;2024-01-15T08:39:47;13.90;;;6.82;;
20986;SDS011;10652;50.306;8.570;2024-01-15T08:43:52;10.63;;;6.50;;
20986;SDS011;10652;50.306;8.570;2024-01-15T08:47:55;13.60;;;7.47;;
20986;SDS011;10652;50.306;8.570;2024-01-15T08:51:57;13.38;;;7.05;;
20986;SDS011;10652;50.306;8.570;2024-01-15T08:55:59;13.73;;;7.60;;
20986;SDS011;10652;50.306;8.570;2024-01-15T09:00:01;14.15;;;7.97;;
20986;SDS011;10652;50.306;8.570;2024-01-15T09:04:04;14.68;;;8.05;;
20986;SDS011;10652;50.306;8.570;2024-01-15T09:08:06;15.35;;;8.32;;
20986;SDS011;10652;50.306;8.570;2024-01-15T09:12:08;15.00;;;8.18;;
20986;SDS011;10652;50.306;8.570;2024-01-15T09:16:10;13.45;;;7.57;;
20986;SDS011;10652;50.306;8.570;2024-01-15T09:20:13;15.25;;;8.40;;
20986;SDS011;10652;50.306;8.570;2024-01-15T09:24:15;12.88;;;7.68;;
20986;SDS011;10652;50.306;8.570;2024-01-15T09:28:28;13.45;;;7.28;;
20986;SDS011;10652;50.306;8.570;2024-01-15T09:32:30;12.75;;;7.57;;
20986;SDS011;10652;50.306;8.570;2024-01-15T09:36:32;13.40;;;7.55;;
20986;SDS011;10652;50.306;8.570;2024-01-15T09:40:34;14.30;;;7.68;;
20986;SDS011;10652;50.306;8.570;2024-01-15T09:44:40;13.32;;;7.97;;
20986;SDS011;10652;50.306;8.570;2024-01-15T09:48:43;12.50;;;7.40;;
20986;SDS011;10652;50.306;8.570;2024-01-15T09:52:45;11.95;;;7.18;;
20986;SDS011;10652;50.306;8.570;2024-01-15T09:56:48;16.02;;;7.82;;
20986;SDS011;10652;50.306;8.570;2024-01-15T10:00:50;13.27;;;7.57;;
20986;SDS011;10652;50.306;8.570;2024-01-15T10:04:53;13.48;;;7.05;;
20986;SDS011;10652;50.306;8.570;2024-01-15T10:08:56;12.20;;;6.70;;
20986;SDS011;10652;50.306;8.570;2024-01-15T10:13:02;10.95;;;6.25;;
20986;SDS011;10652;50.306;8.570;2024-01-15T10:17:14;12.68;;;6.25;;
20986;SDS011;10652;50.306;8.570;2024-01-15T10:21:17;10.90;;;5.45;;
20986;SDS011;10652;50.306;8.570;2024-01-15T10:25:19;11.88;;;5.60;;
20986;SDS011;10652;50.306;8.570;2024-01-15T10:29:26;10.30;;;5.07;;
20986;SDS011;10652;50.306;8.570;2024-01-15T10:33:28;10.00;;;5.05;;
20986;SDS011;10652;50.306;8.570;2024-01-15T10:37:33;8.10;;;5.32;;
20986;SDS011;10652;50.306;8.570;2024-01-15T10:41:35;10.20;;;5.15;;
20986;SDS011;10652;50.306;8.570;2024-01-15T10:45:37;10.32;;;4.22;;
20986;SDS011;10652;50.306;8.570;2024-01-15T10:49:39;8.20;;;5.00;;
20986;SDS011;10652;50.306;8.570;2024-01-15T10:53:43;6.05;;;4.15;;
20986;SDS011;10652;50.306;8.570;2024-01-15T10:57:47;8.07;;;4.70;;
20986;SDS011;10652;50.306;8.570;2024-01-15T11:01:51;7.45;;;3.95;;
20986;SDS011;10652;50.306;8.570;2024-01-15T11:05:56;7.85;;;4.35;;
20986;SDS011;10652;50.306;8.570;2024-01-15T11:09:58;7.90;;;4.30;;
20986;SDS011;10652;50.306;8.570;2024-01-15T11:14:01;5.60;;;3.78;;
20986;SDS011;10652;50.306;8.570;2024-01-15T11:18:03;6.25;;;4.00;;
20986;SDS011;10652;50.306;8.570;2024-01-15T11:22:08;7.40;;;4.72;;
20986;SDS011;10652;50.306;8.570;2024-01-15T11:30:48;5.50;;;3.90;;
20986;SDS011;10652;50.306;8.570;2024-01-15T11:34:57;6.38;;;3.72;;
20986;SDS011;10652;50.306;8.570;2024-01-15T11:43:29;7.03;;;4.57;;
20986;SDS011;10652;50.306;8.570;2024-01-15T11:52:03;7.45;;;4.28;;
20986;SDS011;10652;50.306;8.570;2024-01-15T11:56:09;7.38;;;4.80;;
20986;SDS011;10652;50.306;8.570;2024-01-15T12:00:16;8.02;;;4.85;;
20986;SDS011;10652;50.306;8.570;2024-01-15T12:04:20;7.15;;;4.70;;
20986;SDS011;10652;50.306;8.570;2024-01-15T12:08:23;6.97;;;4.50;;
20986;SDS011;10652;50.306;8.570;2024-01-15T12:12:33;6.85;;;4.10;;
20986;SDS011;10652;50.306;8.570;2024-01-15T12:17:10;8.85;;;4.70;;
20986;SDS011;10652;50.306;8.570;2024-01-15T12:21:13;6.95;;;4.60;;
20986;SDS011;10652;50.306;8.570;2024-01-15T12:25:15;6.60;;;3.85;;
20986;SDS011;10652;50.306;8.570;2024-01-15T12:29:18;6.18;;;4.47;;
20986;SDS011;10652;50.306;8.570;2024-01-15T12:33:20;8.45;;;4.28;;
20986;SDS011;10652;50.306;8.570;2024-01-15T12:37:23;7.15;;;3.95;;
20986;SDS011;10652;50.306;8.570;2024-01-15T12:41:26;7.22;;;4.03;;
20986;SDS011;10652;50.306;8.570;2024-01-15T12:45:29;6.75;;;4.10;;
20986;SDS011;10652;50.306;8.570;2024-01-15T12:49:32;7.22;;;4.38;;
20986;SDS011;10652;50.306;8.570;2024-01-15T12:53:34;6.68;;;4.47;;
20986;SDS011;10652;50.306;8.570;2024-01-15T12:57:37;7.85;;;4.53;;
20986;SDS011;10652;50.306;8.570;2024-01-15T13:01:39;6.45;;;4.10;;
20986;SDS011;10652;50.306;8.570;2024-01-15T13:05:43;6.15;;;3.95;;
20986;SDS011;10652;50.306;8.570;2024-01-15T13:09:45;5.68;;;3.95;;
20986;SDS011;10652;50.306;8.570;2024-01-15T13:13:47;7.95;;;3.80;;
20986;SDS011;10652;50.306;8.570;2024-01-15T13:17:49;5.68;;;3.95;;
20986;SDS011;10652;50.306;8.570;2024-01-15T13:21:51;5.43;;;4.10;;
20986;SDS011;10652;50.306;8.570;2024-01-15T13:25:55;6.32;;;3.97;;
20986;SDS011;10652;50.306;8.570;2024-01-15T13:29:57;6.03;;;4.00;;
20986;SDS011;10652;50.306;8.570;2024-01-15T13:33:59;6.32;;;4.32;;
20986;SDS011;10652;50.306;8.570;2024-01-15T13:38:01;6.03;;;3.80;;
20986;SDS011;10652;50.306;8.570;2024-01-15T13:42:03;5.07;;;3.53;;
20986;SDS011;10652;50.306;8.570;2024-01-15T13:46:06;6.30;;;3.80;;
20986;SDS011;10652;50.306;8.570;2024-01-15T13:50:08;6.03;;;3.97;;
20986;SDS011;10652;50.306;8.570;2024-01-15T13:54:10;6.22;;;4.05;;
20986;SDS011;10652;50.306;8.570;2024-01-15T13:58:13;5.25;;;3.53;;
20986;SDS011;10652;50.306;8.570;2024-01-15T14:02:15;4.20;;;2.95;;
20986;SDS011;10652;50.306;8.570;2024-01-15T14:06:22;4.60;;;3.08;;
20986;SDS011;10652;50.306;8.570;2024-01-15T14:10:26;4.65;;;2.92;;
20986;SDS011;10652;50.306;8.570;2024-01-15T14:14:28;3.65;;;3.00;;
20986;SDS011;10652;50.306;8.570;2024-01-15T14:18:30;6.88;;;3.38;;
20986;SDS011;10652;50.306;8.570;2024-01-15T14:22:35;6.00;;;2.75;;
20986;SDS011;10652;50.306;8.570;2024-01-15T14:26:38;5.22;;;3.03;;
20986;SDS011;10652;50.306;8.570;2024-01-15T14:30:40;5.38;;;3.03;;
20986;SDS011;10652;50.306;8.570;2024-01-15T14:34:42;5.40;;;2.58;;
20986;SDS011;10652;50.306;8.570;2024-01-15T14:38:45;7.13;;;3.25;;
20986;SDS011;10652;50.306;8.570;2024-01-15T14:42:47;15.05;;;6.03;;
20986;SDS011;10652;50.306;8.570;2024-01-15T14:46:49;6.90;;;2.75;;
20986;SDS011;10652;50.306;8.570;2024-01-15T14:50:51;5.22;;;2.67;;
20986;SDS011;10652;50.306;8.570;2024-01-15T14:54:54;5.20;;;2.72;;
20986;SDS011;10652;50.306;8.570;2024-01-15T14:58:56;7.28;;;3.20;;
20986;SDS011;10652;50.306;8.570;2024-01-15T15:02:58;4.57;;;2.15;;
20986;SDS011;10652;50.306;8.570;2024-01-15T15:07:01;6.18;;;2.20;;
20986;SDS011;10652;50.306;8.570;2024-01-15T15:11:04;3.97;;;2.00;;
20986;SDS011;10652;50.306;8.570;2024-01-15T15:15:06;4.82;;;1.95;;
20986;SDS011;10652;50.306;8.570;2024-01-15T15:19:13;3.90;;;2.15;;
20986;SDS011;10652;50.306;8.570;2024-01-15T15:23:15;6.93;;;3.42;;
20986;SDS011;10652;50.306;8.570;2024-01-15T15:27:18;10.32;;;5.03;;
20986;SDS011;10652;50.306;8.570;2024-01-15T15:31:20;8.10;;;3.85;;
20986;SDS011;10652;50.306;8.570;2024-01-15T15:35:23;4.03;;;1.80;;
20986;SDS011;10652;50.306;8.570;2024-01-15T15:39:25;4.65;;;1.92;;
20986;SDS011;10652;50.306;8.570;2024-01-15T15:43:27;5.03;;;2.53;;
20986;SDS011;10652;50.306;8.570;2024-01-15T15:47:30;7.20;;;2.58;;
20986;SDS011;10652;50.306;8.570;2024-01-15T15:51:32;4.63;;;2.22;;
20986;SDS011;10652;50.306;8.570;2024-01-15T15:55:35;5.00;;;1.90;;
20986;SDS011;10652;50.306;8.570;2024-01-15T15:59:38;4.53;;;1.70;;
20986;SDS011;10652;50.306;8.570;2024-01-15T16:03:40;2.35;;;1.65;;
20986;SDS011;10652;50.306;8.570;2024-01-15T16:07:43;3.20;;;1.60;;
20986;SDS011;10652;50.306;8.570;2024-01-15T16:11:45;3.58;;;1.40;;
20986;SDS011;10652;50.306;8.570;2024-01-15T16:15:48;3.97;;;1.42;;
20986;SDS011;10652;50.306;8.570;2024-01-15T16:19:50;4.57;;;1.40;;
20986;SDS011;10652;50.306;8.570;2024-01-15T16:24:14;3.97;;;1.55;;
20986;SDS011;10652;50.306;8.570;2024-01-15T16:28:30;3.53;;;1.42;;
20986;SDS011;10652;50.306;8.570;2024-01-15T16:32:32;1.98;;;1.45;;
20986;SDS011;10652;50.306;8.570;2024-01-15T16:36:35;2.47;;;1.23;;
20986;SDS011;10652;50.306;8.570;2024-01-15T16:40:38;5.93;;;3.05;;
20986;SDS011;10652;50.306;8.570;2024-01-15T16:44:41;6.65;;;4.35;;
20986;SDS011;10652;50.306;8.570;2024-01-15T16:48:43;4.80;;;3.08;;
20986;SDS011;10652;50.306;8.570;2024-01-15T16:52:46;7.35;;;3.60;;
20986;SDS011;10652;50.306;8.570;2024-01-15T16:56:48;6.28;;;3.22;;
20986;SDS011;10652;50.306;8.570;2024-01-15T17:00:51;5.63;;;2.72;;
20986;SDS011;10652;50.306;8.570;2024-01-15T17:04:53;6.15;;;1.60;;
20986;SDS011;10652;50.306;8.570;2024-01-15T17:08:55;4.35;;;1.70;;
20986;SDS011;10652;50.306;8.570;2024-01-15T17:12:57;5.25;;;2.55;;
20986;SDS011;10652;50.306;8.570;2024-01-15T17:17:01;2.40;;;1.90;;
20986;SDS011;10652;50.306;8.570;2024-01-15T17:21:04;4.30;;;1.95;;
20986;SDS011;10652;50.306;8.570;2024-01-15T17:25:06;3.95;;;2.80;;
20986;SDS011;10652;50.306;8.570;2024-01-15T17:29:09;4.35;;;2.67;;
20986;SDS011;10652;50.306;8.570;2024-01-15T17:33:11;2.38;;;1.77;;
20986;SDS011;10652;50.306;8.570;2024-01-15T17:37:13;4.53;;;3.33;;
20986;SDS011;10652;50.306;8.570;2024-01-15T17:41:17;4.57;;;2.47;;
20986;SDS011;10652;50.306;8.570;2024-01-15T17:45:19;5.03;;;3.13;;
20986;SDS011;10652;50.306;8.570;2024-01-15T17:49:22;2.83;;;2.10;;
20986;SDS011;10652;50.306;8.570;2024-01-15T17:53:25;2.47;;;1.60;;
20986;SDS011;10652;50.306;8.570;2024-01-15T17:57:27;3.30;;;2.30;;
20986;SDS011;10652;50.306;8.570;2024-01-15T18:01:29;4.75;;;2.53;;
20986;SDS011;10652;50.306;8.570;2024-01-15T18:05:33;3.72;;;2.53;;
20986;SDS011;10652;50.306;8.570;2024-01-15T18:09:35;3.00;;;2.70;;
20986;SDS011;10652;50.306;8.570;2024-01-15T18:13:37;3.35;;;1.77;;
20986;SDS011;10652;50.306;8.570;2024-01-15T18:17:39;3.45;;;1.80;;
20986;SDS011;10652;50.306;8.570;2024-01-15T18:21:41;2.97;;;2.15;;
20986;SDS011;10652;50.306;8.570;2024-01-15T18:25:43;3.70;;;1.83;;
20986;SDS011;10652;50.306;8.570;2024-01-15T18:29:46;2.30;;;1.60;;
20986;SDS011;10652;50.306;8.570;2024-01-15T18:33:48;2.78;;;1.60;;
20986;SDS011;10652;50.306;8.570;2024-01-15T18:37:50;4.00;;;1.70;;
20986;SDS011;10652;50.306;8.570;2024-01-15T18:41:52;4.03;;;1.80;;
20986;SDS011;10652;50.306;8.570;2024-01-15T18:45:55;4.43;;;1.83;;
20986;SDS011;10652;50.306;8.570;2024-01-15T18:49:57;4.03;;;2.05;;
20986;SDS011;10652;50.306;8.570;2024-01-15T18:53:59;6.10;;;2.13;;
20986;SDS011;10652;50.306;8.570;2024-01-15T18:58:01;3.58;;;2.05;;
20986;SDS011;10652;50.306;8.570;2024-01-15T19:02:04;5.80;;;2.10;;
20986;SDS011;10652;50.306;8.570;2024-01-15T19:06:06;2.92;;;1.90;;
20986;SDS011;10652;50.306;8.570;2024-01-15T19:10:08;2.92;;;1.98;;
20986;SDS011;10652;50.306;8.570;2024-01-15T19:14:11;3.75;;;2.00;;
20986;SDS011;10652;50.306;8.570;2024-01-15T19:18:13;3.60;;;2.40;;
20986;SDS011;10652;50.306;8.570;2024-01-15T19:22:16;6.90;;;3.13;;
20986;SDS011;10652;50.306;8.570;2024-01-15T19:26:21;5.18;;;2.20;;
20986;SDS011;10652;50.306;8.570;2024-01-15T19:30:24;3.90;;;1.83;;
20986;SDS011;10652;50.306;8.570;2024-01-15T19:34:26;6.75;;;2.47;;
20986;SDS011;10652;50.306;8.570;2024-01-15T19:38:28;9.07;;;2.50;;
20986;SDS011;10652;50.306;8.570;2024-01-15T19:42:31;3.00;;;1.77;;
20986;SDS011;10652;50.306;8.570;2024-01-15T19:46:33;8.10;;;1.90;;
20986;SDS011;10652;50.306;8.570;2024-01-15T19:50:36;4.75;;;1.73;;
20986;SDS011;10652;50.306;8.570;2024-01-15T19:54:38;4.47;;;2.38;;
20986;SDS011;10652;50.306;8.570;2024-01-15T19:58:40;9.57;;;3.08;;
20986;SDS011;10652;50.306;8.570;2024-01-15T20:02:42;5.93;;;1.88;;
20986;SDS011;10652;50.306;8.570;2024-01-15T20:06:44;5.65;;;1.80;;
20986;SDS011;10652;50.306;8.570;2024-01-15T20:10:46;5.95;;;3.40;;
20986;SDS011;10652;50.306;8.570;2024-01-15T20:14:49;10.00;;;2.95;;
20986;SDS011;10652;50.306;8.570;2024-01-15T20:18:52;4.78;;;2.13;;
20986;SDS011;10652;50.306;8.570;2024-01-15T20:22:54;8.18;;;2.75;;
20986;SDS011;10652;50.306;8.570;2024-01-15T20:26:57;10.32;;;3.42;;
20986;SDS011;10652;50.306;8.570;2024-01-15T20:30:59;9.18;;;2.90;;
20986;SDS011;10652;50.306;8.570;2024-01-15T20:35:02;7.63;;;2.53;;
20986;SDS011;10652;50.306;8.570;2024-01-15T20:39:05;6.68;;;2.60;;
20986;SDS011;10652;50.306;8.570;2024-01-15T20:43:07;8.15;;;3.80;;
20986;SDS011;10652;50.306;8.570;2024-01-15T20:47:09;8.93;;;3.17;;
20986;SDS011;10652;50.306;8.570;2024-01-15T20:51:12;11.02;;;3.83;;
20986;SDS011;10652;50.306;8.570;2024-01-15T20:55:14;6.97;;;2.15;;
20986;SDS011;10652;50.306;8.570;2024-01-15T20:59:17;8.52;;;2.90;;
20986;SDS011;10652;50.306;8.570;2024-01-15T21:03:19;5.40;;;2.50;;
20986;SDS011;10652;50.306;8.570;2024-01-15T21:07:24;4.68;;;1.92;;
20986;SDS011;10652;50.306;8.570;2024-01-15T21:11:26;7.00;;;1.83;;
20986;SDS011;10652;50.306;8.570;2024-01-15T21:15:28;8.75;;;3.40;;
20986;SDS011;10652;50.306;8.570;2024-01-15T21:19:30;8.77;;;3.50;;
20986;SDS011;10652;50.306;8.570;2024-01-15T21:23:32;6.63;;;2.92;;
20986;SDS011;10652;50.306;8.570;2024-01-15T21:27:36;9.35;;;3.80;;
20986;SDS011;10652;50.306;8.570;2024-01-15T21:31:42;10.57;;;4.00;;
20986;SDS011;10652;50.306;8.570;2024-01-15T21:35:44;9.75;;;4.20;;
20986;SDS011;10652;50.306;8.570;2024-01-15T21:39:47;8.93;;;2.53;;
20986;SDS011;10652;50.306;8.570;2024-01-15T21:43:49;9.80;;;2.65;;
20986;SDS011;10652;50.306;8.570;2024-01-15T21:47:51;8.90;;;2.92;;
20986;SDS011;10652;50.306;8.570;2024-01-15T21:51:53;9.55;;;2.67;;
20986;SDS011;10652;50.306;8.570;2024-01-15T21:55:55;7.07;;;2.35;;
20986;SDS011;10652;50.306;8.570;2024-01-15T21:59:57;8.15;;;2.20;;
20986;SDS011;10652;50.306;8.570;2024-01-15T22:04:02;6.43;;;2.22;;
20986;SDS011;10652;50.306;8.570;2024-01-15T22:08:04;7.13;;;1.70;;
20986;SDS011;10652;50.306;8.570;2024-01-15T22:12:07;11.20;;;2.67;;
20986;SDS011;10652;50.306;8.570;2024-01-15T22:16:09;8.25;;;2.10;;
20986;SDS011;10652;50.306;8.570;2024-01-15T22:20:12;9.93;;;2.03;;
20986;SDS011;10652;50.306;8.570;2024-01-15T22:24:14;8.10;;;1.60;;
20986;SDS011;10652;50.306;8.570;2024-01-15T22:28:17;7.18;;;1.60;;
20986;SDS011;10652;50.306;8.570;2024-01-15T22:32:19;6.15;;;1.33;;
20986;SDS011;10652;50.306;8.570;2024-01-15T22:36:22;7.32;;;1.83;;
20986;SDS011;10652;50.306;8.570;2024-01-15T22:40:24;4.00;;;1.40;;
20986;SDS011;10652;50.306;8.570;2024-01-15T22:44:26;7.70;;;1.38;;
20986;SDS011;10652;50.306;8.570;2024-01-15T22:48:28;5.88;;;1.65;;
20986;SDS011;10652;50.306;8.570;2024-01-15T22:52:30;4.20;;;1.50;;
20986;SDS011;10652;50.306;8.570;2024-01-15T22:56:32;4.63;;;1.13;;
20986;SDS011;10652;50.306;8.570;2024-01-15T23:00:35;6.38;;;1.77;;
20986;SDS011;10652;50.306;8.570;2024-01-15T23:04:37;4.03;;;1.40;;
20986;SDS011;10652;50.306;8.570;2024-01-15T23:08:40;5.25;;;1.73;;
20986;SDS011;10652;50.306;8.570;2024-01-15T23:12:42;5.50;;;1.25;;
20986;SDS011;10652;50.306;8.570;2024-01-15T23:16:45;7.32;;;1.50;;
20986;SDS011;10652;50.306;8.570;2024-01-15T23:20:47;4.78;;;1.25;;
20986;SDS011;10652;50.306;8.570;2024-01-15T23:24:49;6.10;;;1.30;;
20986;SDS011;10652;50.306;8.570;2024-01-15T23:28:51;7.68;;;1.95;;
20986;SDS011;10652;50.306;8.570;2024-01-15T23:32:53;5.03;;;1.58;;
20986;SDS011;10652;50.306;8.570;2024-01-15T23:36:56;5.15;;;1.23;;
20986;SDS011;10652;50.306;8.570;2024-01-15T23:40:58;4.72;;;1.48;;
20986;SDS011;10652;50.306;8.570;2024-01-15T23:45:00;2.45;;;1.30;;
20986;SDS011;10652;50.306;8.570;2024-01-15T23:49:02;3.95;;;1.35;;
20986;SDS011;10652;50.306;8.570;2024-01-15T23:53:04;4.68;;;1.48;;
20986;SDS011;10652;50.306;8.570;2024-01-15T23:57:07;6.15;;;1.40;;
